createdAt,value
2023-03-19T00:00:54.734Z,5.51
2023-03-19T00:02:02.093Z,5.51
2023-03-19T00:03:08.907Z,5.53
2023-03-19T00:04:11.752Z,5.52
2023-03-19T00:05:14.458Z,5.50
2023-03-19T00:06:17.251Z,5.56
2023-03-19T00:07:19.887Z,5.50
2023-03-19T00:08:23.061Z,5.50
2023-03-19T00:09:26.681Z,5.50
2023-03-19T00:10:29.623Z,5.50
2023-03-19T00:11:33.338Z,5.36
2023-03-19T00:12:36.356Z,5.48
2023-03-19T00:13:40.420Z,5.48
2023-03-19T00:14:43.353Z,5.48
2023-03-19T00:15:47.438Z,5.37
2023-03-19T00:16:50.451Z,5.46
2023-03-19T00:17:54.682Z,5.46
2023-03-19T00:18:57.689Z,5.36
2023-03-19T00:20:00.437Z,5.37
2023-03-19T00:21:03.450Z,5.31
2023-03-19T00:22:06.134Z,5.44
2023-03-19T00:23:09.334Z,5.46
2023-03-19T00:24:12.075Z,5.57
2023-03-19T00:25:15.253Z,5.58
2023-03-19T00:26:18.410Z,5.46
2023-03-19T00:27:21.298Z,5.46
2023-03-19T00:28:23.998Z,5.44
2023-03-19T00:29:27.738Z,5.38
2023-03-19T00:30:30.372Z,5.44
2023-03-19T00:31:33.260Z,5.45
2023-03-19T00:32:37.065Z,5.50
2023-03-19T00:33:40.244Z,5.30
2023-03-19T00:34:43.445Z,5.28
2023-03-19T00:35:46.510Z,5.30
2023-03-19T00:36:49.642Z,5.36
2023-03-19T00:37:52.906Z,5.38
2023-03-19T00:38:56.676Z,5.27
2023-03-19T00:39:59.976Z,5.28
2023-03-19T00:41:03.933Z,5.20
2023-03-19T00:42:07.311Z,5.21
2023-03-19T00:43:10.036Z,5.29
2023-03-19T00:44:12.775Z,5.18
2023-03-19T00:45:16.770Z,5.09
2023-03-19T00:46:19.547Z,5.16
2023-03-19T00:47:22.782Z,5.16
2023-03-19T00:48:25.732Z,5.14
2023-03-19T00:49:28.427Z,5.08
2023-03-19T00:50:31.430Z,5.02
2023-03-19T00:51:34.758Z,5.11
2023-03-19T00:52:37.431Z,4.97
2023-03-19T00:53:42.802Z,4.95
2023-03-19T00:54:45.872Z,5.15
2023-03-19T00:55:48.598Z,4.98
2023-03-19T00:56:51.753Z,5.11
2023-03-19T00:57:54.698Z,5.12
2023-03-19T00:58:57.524Z,4.97
2023-03-19T01:00:00.309Z,5.00
2023-03-19T01:01:03.241Z,5.06
2023-03-19T01:02:06.267Z,5.11
2023-03-19T01:03:09.135Z,5.04
2023-03-19T01:04:12.138Z,4.93
2023-03-19T01:05:15.274Z,5.07
2023-03-19T01:06:18.263Z,5.11
2023-03-19T01:07:21.548Z,5.05
2023-03-19T01:08:24.437Z,4.99
2023-03-19T01:09:27.461Z,4.94
2023-03-19T01:10:30.155Z,4.83
2023-03-19T01:11:33.076Z,4.83
2023-03-19T01:12:35.872Z,5.02
2023-03-19T01:13:39.194Z,5.00
2023-03-19T01:14:41.986Z,5.08
2023-03-19T01:15:44.824Z,4.88
2023-03-19T01:16:47.709Z,4.91
2023-03-19T01:17:50.898Z,4.94
2023-03-19T01:18:54.023Z,4.93
2023-03-19T01:19:57.277Z,4.81
2023-03-19T01:21:00.648Z,4.78
2023-03-19T01:22:04.621Z,4.77
2023-03-19T01:23:07.647Z,4.73
2023-03-19T01:24:10.922Z,4.73
2023-03-19T01:25:14.520Z,4.65
2023-03-19T01:26:18.320Z,4.75
2023-03-19T01:27:21.492Z,4.78
2023-03-19T01:28:24.511Z,4.66
2023-03-19T01:29:27.225Z,4.63
2023-03-19T01:30:30.006Z,4.52
2023-03-19T01:31:32.900Z,4.58
2023-03-19T01:32:35.698Z,4.60
2023-03-19T01:33:38.808Z,4.57
2023-03-19T01:34:41.758Z,4.54
2023-03-19T01:35:48.126Z,4.47
2023-03-19T01:36:51.450Z,4.60
2023-03-19T01:37:54.136Z,4.58
2023-03-19T01:38:57.554Z,4.61
2023-03-19T01:40:00.554Z,4.66
2023-03-19T01:41:03.430Z,4.62
2023-03-19T01:42:06.943Z,4.60
2023-03-19T01:43:24.083Z,4.57
2023-03-19T01:44:36.374Z,4.52
2023-03-19T01:45:41.408Z,4.61
2023-03-19T01:46:44.423Z,4.71
2023-03-19T01:47:47.207Z,4.64
2023-03-19T01:48:53.578Z,4.65
2023-03-19T01:49:59.016Z,4.72
2023-03-19T01:51:02.367Z,4.65
2023-03-19T01:52:08.569Z,4.57
2023-03-19T01:53:13.810Z,4.44
2023-03-19T01:54:20.830Z,4.45
2023-03-19T01:55:23.627Z,4.38
2023-03-19T01:56:37.135Z,4.44
2023-03-19T01:57:39.938Z,4.45
2023-03-19T01:58:46.575Z,4.68
2023-03-19T01:59:53.976Z,4.52
2023-03-19T02:00:57.562Z,4.56
2023-03-19T02:02:07.947Z,4.61
2023-03-19T02:03:14.675Z,4.62
2023-03-19T02:04:17.526Z,4.57
2023-03-19T02:05:25.933Z,4.49
2023-03-19T02:06:30.496Z,4.58
2023-03-19T02:07:35.346Z,4.62
2023-03-19T02:08:39.433Z,4.65
2023-03-19T02:09:42.525Z,4.52
2023-03-19T02:10:48.006Z,4.61
2023-03-19T02:11:51.390Z,4.62
2023-03-19T02:12:54.085Z,4.50
2023-03-19T02:13:57.067Z,4.49
2023-03-19T02:15:00.122Z,4.70
2023-03-19T02:16:03.448Z,4.69
2023-03-19T02:17:08.696Z,4.73
2023-03-19T02:18:11.671Z,4.72
2023-03-19T02:19:26.832Z,4.66
2023-03-19T02:20:29.557Z,4.50
2023-03-19T02:21:32.785Z,4.65
2023-03-19T02:22:40.087Z,4.61
2023-03-19T02:23:58.099Z,4.54
2023-03-19T02:25:11.490Z,4.63
2023-03-19T02:26:17.150Z,4.49
2023-03-19T02:27:20.441Z,4.50
2023-03-19T02:28:24.396Z,4.51
2023-03-19T02:29:27.535Z,4.57
2023-03-19T02:30:33.758Z,4.54
2023-03-19T02:31:37.318Z,4.54
2023-03-19T02:32:40.088Z,4.50
2023-03-19T02:33:42.767Z,4.53
2023-03-19T02:34:45.891Z,4.52
2023-03-19T02:35:52.264Z,4.55
2023-03-19T02:37:02.710Z,4.51
2023-03-19T02:38:05.816Z,4.49
2023-03-19T02:39:23.775Z,4.60
2023-03-19T02:40:32.106Z,4.60
2023-03-19T02:41:39.988Z,4.50
2023-03-19T02:42:42.846Z,4.37
2023-03-19T02:43:45.714Z,4.40
2023-03-19T02:44:48.783Z,4.31
2023-03-19T02:45:51.989Z,4.47
2023-03-19T02:46:55.066Z,4.53
2023-03-19T02:47:58.467Z,4.48
2023-03-19T02:49:01.178Z,4.38
2023-03-19T02:50:04.011Z,4.46
2023-03-19T02:51:07.415Z,4.50
2023-03-19T02:52:10.951Z,4.47
2023-03-19T02:53:13.783Z,4.36
2023-03-19T02:54:16.530Z,4.35
2023-03-19T02:55:19.327Z,4.48
2023-03-19T02:56:23.338Z,4.45
2023-03-19T02:57:26.487Z,4.43
2023-03-19T02:58:29.218Z,4.61
2023-03-19T02:59:31.894Z,4.55
2023-03-19T03:00:34.924Z,4.48
2023-03-19T03:01:38.283Z,4.45
2023-03-19T03:02:41.296Z,4.45
2023-03-19T03:03:44.021Z,4.44
2023-03-19T03:04:46.760Z,4.46
2023-03-19T03:05:49.446Z,4.47
2023-03-19T03:06:52.920Z,4.35
2023-03-19T03:07:55.979Z,4.45
2023-03-19T03:08:58.825Z,4.38
2023-03-19T03:10:01.521Z,4.42
2023-03-19T03:11:04.454Z,4.41
2023-03-19T03:12:07.677Z,4.51
2023-03-19T03:13:10.368Z,4.32
2023-03-19T03:14:13.050Z,4.33
2023-03-19T03:15:15.892Z,4.23
2023-03-19T03:16:18.669Z,4.32
2023-03-19T03:17:21.425Z,4.42
2023-03-19T03:18:24.259Z,4.38
2023-03-19T03:19:27.328Z,4.26
2023-03-19T03:20:30.792Z,4.19
2023-03-19T03:21:35.554Z,4.25
2023-03-19T03:22:39.540Z,4.30
2023-03-19T03:23:42.283Z,4.21
2023-03-19T03:24:44.999Z,4.15
2023-03-19T03:25:52.337Z,4.18
2023-03-19T03:26:55.044Z,4.20
2023-03-19T03:27:57.780Z,4.18
2023-03-19T03:29:00.496Z,4.32
2023-03-19T03:30:08.524Z,4.37
2023-03-19T03:31:12.235Z,4.41
2023-03-19T03:32:15.499Z,4.28
2023-03-19T03:33:18.648Z,4.42
2023-03-19T03:34:21.597Z,4.33
2023-03-19T03:35:24.528Z,4.33
2023-03-19T03:36:28.116Z,4.08
2023-03-19T03:37:31.255Z,4.15
2023-03-19T03:38:34.796Z,4.19
2023-03-19T03:39:37.908Z,4.25
2023-03-19T03:40:41.929Z,4.18
2023-03-19T03:41:45.017Z,4.26
2023-03-19T03:42:47.674Z,4.17
2023-03-19T03:43:50.474Z,4.02
2023-03-19T03:44:53.159Z,4.12
2023-03-19T03:45:55.948Z,4.15
2023-03-19T03:46:58.560Z,4.26
2023-03-19T03:48:01.538Z,4.24
2023-03-19T03:49:04.208Z,4.16
2023-03-19T03:50:07.886Z,4.22
2023-03-19T03:51:10.642Z,4.21
2023-03-19T03:52:13.763Z,4.21
2023-03-19T03:53:17.116Z,4.22
2023-03-19T03:54:19.870Z,4.09
2023-03-19T03:55:23.155Z,3.99
2023-03-19T03:56:26.393Z,4.12
2023-03-19T03:57:29.086Z,4.22
2023-03-19T03:58:32.113Z,4.23
2023-03-19T03:59:35.575Z,4.21
2023-03-19T04:00:38.288Z,4.22
2023-03-19T04:01:41.401Z,4.20
2023-03-19T04:02:44.277Z,4.16
2023-03-19T04:03:46.991Z,3.91
2023-03-19T04:04:49.958Z,3.96
2023-03-19T04:05:53.184Z,3.96
2023-03-19T04:06:56.697Z,4.02
2023-03-19T04:07:59.403Z,3.95
2023-03-19T04:09:02.722Z,4.11
2023-03-19T04:10:06.253Z,4.01
2023-03-19T04:11:09.509Z,3.99
2023-03-19T04:12:13.344Z,3.73
2023-03-19T04:13:16.176Z,3.85
2023-03-19T04:14:18.977Z,3.86
2023-03-19T04:15:21.931Z,3.83
2023-03-19T04:16:25.274Z,3.75
2023-03-19T04:17:28.051Z,3.65
2023-03-19T04:18:30.872Z,3.81
2023-03-19T04:19:34.390Z,3.86
2023-03-19T04:20:37.869Z,3.78
2023-03-19T04:21:41.664Z,3.67
2023-03-19T04:22:45.497Z,3.62
2023-03-19T04:23:48.552Z,3.68
2023-03-19T04:24:51.623Z,3.77
2023-03-19T04:26:02.094Z,3.69
2023-03-19T04:27:05.583Z,3.76
2023-03-19T04:28:09.385Z,3.84
2023-03-19T04:29:12.443Z,3.90
2023-03-19T04:30:15.720Z,3.88
2023-03-19T04:31:18.869Z,3.77
2023-03-19T04:32:22.142Z,3.78
2023-03-19T04:33:25.643Z,3.67
2023-03-19T04:34:28.757Z,3.59
2023-03-19T04:35:32.000Z,3.76
2023-03-19T04:36:35.552Z,3.60
2023-03-19T04:37:38.717Z,3.62
2023-03-19T04:38:41.895Z,3.57
2023-03-19T04:39:44.891Z,3.60
2023-03-19T04:40:48.830Z,3.62
2023-03-19T04:41:51.908Z,3.67
2023-03-19T04:42:55.156Z,3.56
2023-03-19T04:43:58.146Z,3.61
2023-03-19T04:45:01.065Z,3.60
2023-03-19T04:46:04.158Z,3.47
2023-03-19T04:47:07.236Z,3.57
2023-03-19T04:48:10.228Z,3.57
2023-03-19T04:49:13.575Z,3.60
2023-03-19T04:50:16.620Z,3.77
2023-03-19T04:51:21.717Z,3.71
2023-03-19T04:52:24.954Z,3.68
2023-03-19T04:53:28.649Z,3.69
2023-03-19T04:54:32.800Z,3.62
2023-03-19T04:55:35.716Z,3.65
2023-03-19T04:56:38.865Z,3.61
2023-03-19T04:57:42.184Z,3.50
2023-03-19T04:58:46.366Z,3.46
2023-03-19T04:59:49.216Z,3.41
2023-03-19T05:00:52.883Z,3.55
2023-03-19T05:01:55.941Z,3.47
2023-03-19T05:02:58.970Z,3.60
2023-03-19T05:04:02.577Z,3.71
2023-03-19T05:05:13.920Z,3.72
2023-03-19T05:06:17.600Z,3.55
2023-03-19T05:07:21.221Z,3.61
2023-03-19T05:08:24.263Z,3.61
2023-03-19T05:09:27.257Z,3.56
2023-03-19T05:10:30.721Z,3.53
2023-03-19T05:11:33.867Z,3.60
2023-03-19T05:12:37.077Z,3.52
2023-03-19T05:13:40.135Z,3.57
2023-03-19T05:14:43.124Z,3.64
2023-03-19T05:15:46.592Z,3.40
2023-03-19T05:16:49.898Z,3.18
2023-03-19T05:17:52.911Z,3.30
2023-03-19T05:18:55.818Z,3.53
2023-03-19T05:19:59.705Z,3.55
2023-03-19T05:21:02.859Z,3.61
2023-03-19T05:22:05.965Z,3.55
2023-03-19T05:23:08.879Z,3.59
2023-03-19T05:24:12.617Z,3.56
2023-03-19T05:25:16.572Z,3.51
2023-03-19T05:26:19.676Z,3.53
2023-03-19T05:27:22.961Z,3.58
2023-03-19T05:28:25.855Z,3.64
2023-03-19T05:29:29.089Z,3.63
2023-03-19T05:30:32.226Z,3.58
2023-03-19T05:31:35.516Z,3.58
2023-03-19T05:32:41.052Z,3.51
2023-03-19T05:33:44.122Z,3.56
2023-03-19T05:34:47.179Z,3.54
2023-03-19T05:35:51.471Z,3.65
2023-03-19T05:36:55.535Z,3.68
2023-03-19T05:37:58.925Z,3.75
2023-03-19T05:39:02.484Z,3.64
2023-03-19T05:40:07.137Z,3.64
2023-03-19T05:41:10.186Z,3.54
2023-03-19T05:42:13.243Z,3.57
2023-03-19T05:43:16.322Z,3.41
2023-03-19T05:44:19.484Z,3.57
2023-03-19T05:45:22.517Z,3.49
2023-03-19T05:46:25.608Z,3.61
2023-03-19T05:47:28.742Z,3.58
2023-03-19T05:48:32.272Z,3.59
2023-03-19T05:49:35.518Z,3.54
2023-03-19T05:50:39.079Z,3.60
2023-03-19T05:51:42.228Z,3.57
2023-03-19T05:52:45.505Z,3.53
2023-03-19T05:53:48.321Z,3.52
2023-03-19T05:54:51.245Z,3.68
2023-03-19T05:55:54.172Z,3.69
2023-03-19T05:56:57.182Z,3.67
2023-03-19T05:58:00.864Z,3.61
2023-03-19T05:59:04.128Z,3.77
2023-03-19T06:00:08.416Z,3.87
2023-03-19T06:01:11.622Z,3.79
2023-03-19T06:02:15.158Z,4.00
2023-03-19T06:03:18.518Z,3.89
2023-03-19T06:04:21.685Z,3.75
2023-03-19T06:05:25.027Z,3.84
2023-03-19T06:06:28.390Z,3.64
2023-03-19T06:07:31.582Z,3.75
2023-03-19T06:08:35.177Z,3.75
2023-03-19T06:09:38.220Z,3.88
2023-03-19T06:10:41.493Z,3.87
2023-03-19T06:11:44.444Z,3.91
2023-03-19T06:12:47.999Z,3.96
2023-03-19T06:13:50.830Z,4.08
2023-03-19T06:14:53.761Z,3.94
2023-03-19T06:15:57.057Z,3.92
2023-03-19T06:17:01.114Z,3.96
2023-03-19T06:18:04.422Z,4.15
2023-03-19T06:19:07.637Z,4.10
2023-03-19T06:20:12.243Z,3.98
2023-03-19T06:21:15.554Z,4.16
2023-03-19T06:22:18.560Z,4.22
2023-03-19T06:23:21.688Z,4.23
2023-03-19T06:24:24.909Z,4.38
2023-03-19T06:25:28.355Z,4.16
2023-03-19T06:26:31.530Z,4.09
2023-03-19T06:27:34.597Z,4.28
2023-03-19T06:28:37.656Z,4.38
2023-03-19T06:29:40.690Z,4.44
2023-03-19T06:30:43.956Z,4.49
2023-03-19T06:31:46.997Z,4.62
2023-03-19T06:32:50.405Z,4.66
2023-03-19T06:33:54.299Z,4.53
2023-03-19T06:34:57.394Z,4.73
2023-03-19T06:36:00.520Z,4.83
2023-03-19T06:37:04.134Z,4.87
2023-03-19T06:38:07.714Z,4.91
2023-03-19T06:39:11.441Z,4.97
2023-03-19T06:40:14.933Z,4.97
2023-03-19T06:41:18.115Z,4.94
2023-03-19T06:42:22.075Z,5.00
2023-03-19T06:43:25.084Z,5.02
2023-03-19T06:44:28.075Z,5.11
2023-03-19T06:45:33.721Z,5.37
2023-03-19T06:46:36.682Z,5.43
2023-03-19T06:47:42.259Z,5.45
2023-03-19T06:48:45.333Z,5.49
2023-03-19T06:49:48.238Z,5.54
2023-03-19T06:50:51.347Z,5.56
2023-03-19T06:51:55.115Z,5.57
2023-03-19T06:52:58.812Z,5.44
2023-03-19T06:54:01.867Z,5.58
2023-03-19T06:55:06.745Z,5.72
2023-03-19T06:56:10.533Z,5.83
2023-03-19T06:57:13.722Z,6.00
2023-03-19T06:58:17.552Z,5.92
2023-03-19T06:59:20.546Z,5.99
2023-03-19T07:00:24.008Z,5.52
2023-03-19T07:01:27.105Z,5.58
2023-03-19T07:02:30.159Z,5.60
2023-03-19T07:03:33.051Z,5.91
2023-03-19T07:04:36.062Z,6.16
2023-03-19T07:05:39.073Z,6.37
2023-03-19T07:06:42.257Z,6.42
2023-03-19T07:07:45.431Z,6.08
2023-03-19T07:08:49.017Z,6.05
2023-03-19T07:09:52.395Z,5.98
2023-03-19T07:11:03.327Z,6.17
2023-03-19T07:12:06.462Z,6.22
2023-03-19T07:13:09.876Z,6.28
2023-03-19T07:14:13.328Z,6.44
2023-03-19T07:15:17.944Z,6.69
2023-03-19T07:16:21.066Z,6.73
2023-03-19T07:17:25.238Z,6.61
2023-03-19T07:18:28.240Z,6.78
2023-03-19T07:19:31.201Z,6.68
2023-03-19T07:20:34.562Z,6.78
2023-03-19T07:21:38.277Z,7.00
2023-03-19T07:22:41.594Z,6.55
2023-03-19T07:23:47.219Z,6.51
2023-03-19T07:24:51.908Z,6.49
2023-03-19T07:25:55.238Z,6.24
2023-03-19T07:26:58.869Z,6.49
2023-03-19T07:28:01.967Z,6.87
2023-03-19T07:29:04.976Z,6.98
2023-03-19T07:30:08.690Z,7.05
2023-03-19T07:31:11.721Z,6.96
2023-03-19T07:32:14.725Z,6.92
2023-03-19T07:33:17.669Z,7.26
2023-03-19T07:34:20.717Z,7.45
2023-03-19T07:35:23.730Z,7.40
2023-03-19T07:36:26.785Z,7.52
2023-03-19T07:37:29.739Z,7.57
2023-03-19T07:38:32.962Z,7.82
2023-03-19T07:39:36.133Z,7.97
2023-03-19T07:40:43.396Z,8.03
2023-03-19T07:41:49.438Z,8.11
2023-03-19T07:42:52.303Z,7.95
2023-03-19T07:43:55.123Z,7.88
2023-03-19T07:44:58.002Z,8.07
2023-03-19T07:46:01.215Z,7.83
2023-03-19T07:47:04.312Z,7.50
2023-03-19T07:48:07.372Z,7.55
2023-03-19T07:49:10.236Z,8.07
2023-03-19T07:50:13.295Z,8.47
2023-03-19T07:51:16.278Z,8.54
2023-03-19T07:52:19.479Z,8.36
2023-03-19T07:53:22.570Z,8.45
2023-03-19T07:54:25.738Z,8.24
2023-03-19T07:55:28.572Z,8.33
2023-03-19T07:56:32.241Z,8.59
2023-03-19T07:57:35.671Z,8.77
2023-03-19T07:58:38.645Z,8.48
2023-03-19T07:59:42.196Z,8.64
2023-03-19T08:00:45.600Z,8.84
2023-03-19T08:01:48.716Z,8.38
2023-03-19T08:02:51.819Z,8.50
2023-03-19T08:03:54.773Z,8.86
2023-03-19T08:04:58.762Z,8.96
2023-03-19T08:06:01.890Z,9.02
2023-03-19T08:07:04.771Z,9.18
2023-03-19T08:08:08.048Z,9.49
2023-03-19T08:09:11.121Z,9.75
2023-03-19T08:10:14.516Z,9.77
2023-03-19T08:11:17.643Z,9.24
2023-03-19T08:12:20.641Z,9.38
2023-03-19T08:13:23.634Z,9.01
2023-03-19T08:14:26.501Z,9.09
2023-03-19T08:15:29.345Z,8.93
2023-03-19T08:16:32.436Z,8.59
2023-03-19T08:17:38.547Z,8.66
2023-03-19T08:18:41.481Z,9.35
2023-03-19T08:19:45.260Z,9.88
2023-03-19T08:20:48.520Z,9.66
2023-03-19T08:21:51.541Z,9.70
2023-03-19T08:22:54.580Z,9.93
2023-03-19T08:23:57.556Z,10.11
2023-03-19T08:25:00.514Z,10.03
2023-03-19T08:26:03.589Z,10.47
2023-03-19T08:27:07.035Z,10.81
2023-03-19T08:28:10.436Z,10.75
2023-03-19T08:29:13.373Z,10.87
2023-03-19T08:30:17.127Z,10.66
2023-03-19T08:31:20.510Z,11.04
2023-03-19T08:32:24.043Z,11.56
2023-03-19T08:33:27.035Z,11.46
2023-03-19T08:34:29.902Z,11.78
2023-03-19T08:35:32.849Z,11.14
2023-03-19T08:36:36.072Z,10.76
2023-03-19T08:37:39.005Z,11.19
2023-03-19T08:38:43.036Z,11.78
2023-03-19T08:39:46.166Z,11.78
2023-03-19T08:40:49.354Z,11.88
2023-03-19T08:41:52.153Z,11.67
2023-03-19T08:42:56.265Z,11.51
2023-03-19T08:43:59.226Z,11.87
2023-03-19T08:45:02.188Z,12.38
2023-03-19T08:46:06.879Z,12.06
2023-03-19T08:47:11.605Z,12.46
2023-03-19T08:48:14.497Z,11.70
2023-03-19T08:49:17.478Z,11.69
2023-03-19T08:50:20.659Z,12.15
2023-03-19T08:51:26.291Z,12.02
2023-03-19T08:52:29.439Z,11.94
2023-03-19T08:53:33.375Z,12.41
2023-03-19T08:54:37.156Z,12.03
2023-03-19T08:55:40.137Z,12.30
2023-03-19T08:56:43.050Z,12.72
2023-03-19T08:57:45.944Z,12.91
2023-03-19T08:58:48.818Z,13.31
2023-03-19T08:59:53.226Z,13.01
2023-03-19T09:01:09.105Z,12.79
2023-03-19T09:02:12.588Z,13.02
2023-03-19T09:03:17.173Z,13.54
2023-03-19T09:04:23.284Z,13.78
2023-03-19T09:05:28.134Z,13.93
2023-03-19T09:06:32.594Z,14.07
2023-03-19T09:07:35.545Z,13.67
2023-03-19T09:08:38.946Z,13.63
2023-03-19T09:09:43.693Z,13.55
2023-03-19T09:10:46.973Z,13.88
2023-03-19T09:11:51.097Z,13.75
2023-03-19T09:12:54.367Z,13.77
2023-03-19T09:13:57.251Z,13.87
2023-03-19T09:15:00.645Z,13.19
2023-03-19T09:16:04.138Z,13.92
2023-03-19T09:17:07.762Z,13.82
2023-03-19T09:18:10.825Z,13.97
2023-03-19T09:19:13.842Z,14.18
2023-03-19T09:20:17.085Z,13.63
2023-03-19T09:21:20.082Z,14.09
2023-03-19T09:22:23.142Z,14.28
2023-03-19T09:23:26.182Z,14.55
2023-03-19T09:24:29.324Z,14.16
2023-03-19T09:25:32.610Z,14.42
2023-03-19T09:26:35.843Z,14.12
2023-03-19T09:27:38.881Z,13.50
2023-03-19T09:28:41.965Z,14.16
2023-03-19T09:29:44.946Z,14.87
2023-03-19T09:30:49.718Z,15.15
2023-03-19T09:31:52.626Z,14.28
2023-03-19T09:32:55.623Z,14.06
2023-03-19T09:33:58.773Z,14.34
2023-03-19T09:35:02.227Z,13.87
2023-03-19T09:36:06.045Z,13.99
2023-03-19T09:37:11.933Z,14.11
2023-03-19T09:38:15.094Z,13.61
2023-03-19T09:39:18.076Z,13.61
2023-03-19T09:40:28.204Z,14.20
2023-03-19T09:41:48.596Z,15.08
2023-03-19T09:43:17.183Z,14.87
2023-03-19T09:44:28.144Z,15.04
2023-03-19T09:45:31.051Z,15.72
2023-03-19T09:46:46.773Z,15.97
2023-03-19T09:47:54.424Z,15.60
2023-03-19T09:49:14.708Z,15.71
2023-03-19T09:50:20.755Z,15.93
2023-03-19T09:51:56.384Z,15.99
2023-03-19T09:53:03.996Z,16.42
2023-03-19T09:54:32.164Z,16.53
2023-03-19T09:55:44.824Z,17.03
2023-03-19T09:56:47.865Z,16.70
2023-03-19T09:57:55.994Z,16.18
2023-03-19T09:58:59.405Z,15.37
2023-03-19T10:00:07.015Z,15.18
2023-03-19T10:01:28.892Z,15.46
2023-03-19T10:02:44.119Z,14.50
2023-03-19T10:04:14.544Z,14.94
2023-03-19T10:05:50.155Z,15.68
2023-03-19T10:07:00.113Z,16.29
2023-03-19T10:08:32.332Z,16.67
2023-03-19T10:09:47.115Z,16.19
2023-03-19T10:11:17.518Z,14.81
2023-03-19T10:12:52.734Z,15.68
2023-03-19T10:14:17.415Z,16.23
2023-03-19T10:15:33.932Z,16.35
2023-03-19T10:16:40.515Z,16.38
2023-03-19T10:18:01.907Z,15.98
2023-03-19T10:19:08.806Z,15.99
2023-03-19T10:20:20.667Z,15.75
2023-03-19T10:21:47.728Z,14.34
2023-03-19T10:22:59.643Z,14.78
2023-03-19T10:24:31.855Z,15.08
2023-03-19T10:25:41.571Z,15.17
2023-03-19T10:26:46.313Z,15.31
2023-03-19T10:27:59.562Z,15.33
2023-03-19T10:29:02.569Z,15.87
2023-03-19T10:30:15.019Z,16.19
2023-03-19T10:31:30.577Z,15.96
2023-03-19T10:32:53.434Z,16.24
2023-03-19T10:34:10.939Z,15.74
2023-03-19T10:35:22.712Z,14.91
2023-03-19T10:36:35.225Z,16.04
2023-03-19T10:37:38.720Z,16.58
2023-03-19T10:38:43.309Z,16.03
2023-03-19T10:39:48.225Z,16.20
2023-03-19T10:41:09.735Z,16.27
2023-03-19T10:42:33.078Z,16.14
2023-03-19T10:43:40.196Z,17.05
2023-03-19T10:44:51.155Z,16.82
2023-03-19T10:45:59.124Z,16.65
2023-03-19T10:47:14.663Z,16.54
2023-03-19T10:48:19.243Z,17.12
2023-03-19T10:49:22.452Z,16.66
2023-03-19T10:50:36.555Z,17.06
2023-03-19T10:51:40.245Z,17.74
2023-03-19T10:52:44.413Z,17.50
2023-03-19T10:53:47.307Z,16.88
2023-03-19T10:54:56.828Z,16.35
2023-03-19T10:56:05.124Z,16.83
2023-03-19T10:57:23.324Z,17.17
2023-03-19T10:58:29.221Z,17.57
2023-03-19T10:59:38.635Z,17.93
2023-03-19T11:00:41.858Z,17.79
2023-03-19T11:01:44.857Z,18.38
2023-03-19T11:02:54.112Z,18.86
2023-03-19T11:04:02.570Z,18.95
2023-03-19T11:05:09.098Z,18.23
2023-03-19T11:06:24.146Z,18.47
2023-03-19T11:07:28.297Z,18.27
2023-03-19T11:08:36.739Z,17.46
2023-03-19T11:09:43.177Z,16.78
2023-03-19T11:10:50.143Z,17.02
2023-03-19T11:12:07.181Z,17.31
2023-03-19T11:13:26.408Z,17.68
2023-03-19T11:14:38.864Z,17.49
2023-03-19T11:15:42.080Z,16.26
2023-03-19T11:17:04.665Z,16.12
2023-03-19T11:18:22.131Z,16.95
2023-03-19T11:19:28.406Z,17.83
2023-03-19T11:20:34.393Z,18.39
2023-03-19T11:21:37.930Z,18.62
2023-03-19T11:22:41.718Z,18.99
2023-03-19T11:23:44.870Z,18.40
2023-03-19T11:24:54.344Z,18.00
2023-03-19T11:26:04.129Z,17.94
2023-03-19T11:27:09.094Z,17.85
2023-03-19T11:28:21.545Z,17.91
2023-03-19T11:29:29.164Z,17.84
2023-03-19T11:30:52.284Z,18.27
2023-03-19T11:32:22.098Z,18.63
2023-03-19T11:33:48.296Z,18.54
2023-03-19T11:35:00.042Z,18.23
2023-03-19T11:36:23.722Z,18.47
2023-03-19T11:37:54.808Z,18.52
2023-03-19T11:39:12.604Z,18.96
2023-03-19T11:40:32.064Z,19.05
2023-03-19T11:41:38.192Z,18.14
2023-03-19T11:43:08.978Z,18.96
2023-03-19T11:44:26.889Z,18.09
2023-03-19T11:45:42.913Z,19.08
2023-03-19T11:46:54.826Z,19.52
2023-03-19T11:48:34.224Z,19.39
2023-03-19T11:50:19.590Z,19.76
2023-03-19T11:51:30.697Z,19.58
2023-03-19T11:52:36.916Z,19.43
2023-03-19T11:53:51.873Z,19.81
2023-03-19T11:55:28.493Z,19.70
2023-03-19T11:56:43.892Z,19.69
2023-03-19T11:58:05.594Z,19.51
2023-03-19T11:59:33.356Z,19.69
2023-03-19T12:00:39.651Z,20.06
2023-03-19T12:02:06.941Z,19.72
2023-03-19T12:03:25.634Z,20.23
2023-03-19T12:04:46.156Z,19.86
2023-03-19T12:06:05.587Z,19.72
2023-03-19T12:07:17.990Z,18.75
2023-03-19T12:08:26.765Z,18.57
2023-03-19T12:09:41.505Z,18.81
2023-03-19T12:10:59.747Z,19.08
2023-03-19T12:12:26.611Z,19.27
2023-03-19T12:13:55.709Z,19.24
2023-03-19T12:15:22.758Z,18.97
2023-03-19T12:16:45.762Z,19.41
2023-03-19T12:18:19.085Z,17.88
2023-03-19T12:19:56.682Z,18.06
2023-03-19T12:21:14.005Z,17.46
2023-03-19T12:22:36.612Z,18.80
2023-03-19T12:24:13.140Z,19.20
2023-03-19T12:25:56.456Z,19.19
2023-03-19T12:27:19.343Z,18.68
2023-03-19T12:28:50.375Z,18.48
2023-03-19T12:29:59.506Z,19.06
2023-03-19T12:31:18.514Z,19.40
2023-03-19T12:32:38.580Z,20.19
2023-03-19T12:34:11.853Z,20.21
2023-03-19T12:35:31.741Z,19.31
2023-03-19T12:36:45.690Z,19.31
2023-03-19T12:38:17.324Z,18.81
2023-03-19T12:39:26.753Z,19.83
2023-03-19T12:40:51.926Z,19.71
2023-03-19T12:41:59.143Z,20.31
2023-03-19T12:43:07.869Z,20.22
2023-03-19T12:44:10.834Z,20.82
2023-03-19T12:45:27.925Z,20.71
2023-03-19T12:46:46.157Z,20.29
2023-03-19T12:47:51.323Z,20.25
2023-03-19T12:49:06.690Z,19.72
2023-03-19T12:50:13.829Z,19.13
2023-03-19T12:51:23.105Z,19.62
2023-03-19T12:52:40.455Z,19.32
2023-03-19T12:53:54.444Z,19.67
2023-03-19T12:55:00.921Z,20.02
2023-03-19T12:56:28.302Z,19.61
2023-03-19T12:57:49.171Z,19.61
2023-03-19T12:59:23.965Z,19.73
2023-03-19T13:00:48.403Z,18.98
2023-03-19T13:01:59.562Z,18.41
2023-03-19T13:03:29.383Z,18.37
2023-03-19T13:04:40.704Z,18.51
2023-03-19T13:05:50.803Z,19.40
2023-03-19T13:07:07.737Z,19.96
2023-03-19T13:08:37.370Z,19.92
2023-03-19T13:10:09.902Z,18.97
2023-03-19T13:11:20.438Z,18.55
2023-03-19T13:12:29.418Z,18.09
2023-03-19T13:13:57.629Z,18.47
2023-03-19T13:15:09.130Z,18.83
2023-03-19T13:16:36.779Z,18.86
2023-03-19T13:18:17.121Z,18.63
2023-03-19T13:19:32.835Z,18.74
2023-03-19T13:20:54.773Z,18.65
2023-03-19T13:22:04.140Z,18.67
2023-03-19T13:23:11.368Z,18.34
2023-03-19T13:24:24.042Z,18.41
2023-03-19T13:25:37.842Z,17.61
2023-03-19T13:26:41.414Z,17.11
2023-03-19T13:27:55.605Z,16.89
2023-03-19T13:29:18.334Z,16.25
2023-03-19T13:30:22.850Z,15.89
2023-03-19T13:31:27.427Z,16.08
2023-03-19T13:32:42.499Z,16.55
2023-03-19T13:34:02.876Z,16.32
2023-03-19T13:35:13.958Z,16.53
2023-03-19T13:36:17.644Z,16.78
2023-03-19T13:37:22.089Z,16.15
2023-03-19T13:38:40.854Z,15.80
2023-03-19T13:39:46.594Z,15.80
2023-03-19T13:40:53.277Z,15.86
2023-03-19T13:42:33.556Z,15.83
2023-03-19T13:43:36.464Z,16.06
2023-03-19T13:44:42.795Z,15.64
2023-03-19T13:45:45.986Z,15.59
2023-03-19T13:46:50.144Z,15.44
2023-03-19T13:47:53.402Z,15.49
2023-03-19T13:49:09.963Z,15.49
2023-03-19T13:50:24.197Z,15.33
2023-03-19T13:51:30.086Z,14.93
2023-03-19T13:52:33.125Z,14.85
2023-03-19T13:53:40.364Z,14.99
2023-03-19T13:54:46.238Z,14.54
2023-03-19T13:55:55.280Z,14.77
2023-03-19T13:57:08.231Z,14.53
2023-03-19T13:58:18.217Z,14.78
2023-03-19T13:59:27.968Z,15.04
2023-03-19T14:00:46.307Z,15.43
2023-03-19T14:01:49.733Z,15.69
2023-03-19T14:02:54.342Z,15.72
2023-03-19T14:04:03.429Z,15.48
2023-03-19T14:05:19.499Z,15.72
2023-03-19T14:06:40.218Z,15.85
2023-03-19T14:07:45.188Z,15.94
2023-03-19T14:08:48.172Z,16.09
2023-03-19T14:10:07.599Z,16.08
2023-03-19T14:11:11.340Z,15.91
2023-03-19T14:12:40.747Z,16.22
2023-03-19T14:13:49.549Z,16.27
2023-03-19T14:14:58.181Z,16.26
2023-03-19T14:16:09.001Z,15.87
2023-03-19T14:17:20.970Z,15.66
2023-03-19T14:18:25.695Z,15.65
2023-03-19T14:19:31.142Z,15.38
2023-03-19T14:20:47.802Z,15.44
2023-03-19T14:22:01.363Z,15.26
2023-03-19T14:23:11.103Z,15.17
2023-03-19T14:25:58.677Z,15.03
2023-03-19T14:27:18.887Z,15.24
2023-03-19T14:28:34.016Z,14.92
2023-03-19T14:29:38.412Z,15.15
2023-03-19T14:30:50.170Z,15.25
2023-03-19T14:31:54.698Z,15.01
2023-03-19T14:33:03.884Z,15.15
2023-03-19T14:34:21.758Z,15.29
2023-03-19T14:35:26.358Z,15.42
2023-03-19T14:36:31.127Z,15.52
2023-03-19T14:37:50.184Z,15.34
2023-03-19T14:39:04.993Z,15.17
2023-03-19T14:40:19.501Z,15.36
2023-03-19T14:41:27.300Z,15.33
2023-03-19T14:42:43.980Z,14.87